Terminal Aerodrome Forecast
Issued by NWS Wilmington, OH

Current Version | Previous Version | Graphics & Text | Print | Product List | Glossary On
Versions: 1 2 3 4 5 6 7 8 9 10 11 12 13 14 15 16 17 18 19 20 21 22 23 24 25 26 27
528
FTUS41 KILN 231741
TAFCVG
TAF
KCVG 231741Z 2318/2424 30008KT P6SM SCT050 BKN250
     FM240000 32004KT P6SM SCT100 BKN200
     FM240900 VRB03KT P6SM FEW025 BKN100
      TEMPO 2409/2413 5SM BR
     FM241400 03008KT P6SM SCT040=

USA.gov is the U.S. government's official web portal to all federal, state and local government web resources and services.